Time,TemperatureF,DewpointF,PressureIn,WindDirection,WindDirectionDegrees,WindSpeedMPH,WindSpeedGustMPH,Humidity,HourlyPrecipIn,Conditions,Clouds,dailyrainin,SoftwareType,DateUTC
2013-05-10 00:04:00,65.6,64.4,29.93,WSW,253,0.0,0.0,96,0.06,,---,0.06,VWS V14.00,2013-05-10 05:04:00,
2013-05-10 00:09:00,65.6,64.4,29.93,WSW,253,0.0,0.0,96,0.10,,---,0.10,VWS V14.00,2013-05-10 05:09:00,
2013-05-10 00:14:00,65.6,64.4,29.93,WSW,253,0.0,0.0,96,0.11,,---,0.11,VWS V14.00,2013-05-10 05:14:00,
2013-05-10 00:19:00,65.5,64.3,29.93,WSW,253,0.0,0.0,96,0.11,,---,0.11,VWS V14.00,2013-05-10 05:19:00,
2013-05-10 00:24:00,65.5,64.3,29.93,WSW,253,0.0,0.0,96,0.11,,---,0.11,VWS V14.00,2013-05-10 05:24:00,
2013-05-10 00:29:00,65.5,64.3,29.93,WSW,253,0.0,0.0,96,0.11,,---,0.11,VWS V14.00,2013-05-10 05:29:00,
2013-05-10 00:34:00,65.5,64.3,29.93,WSW,253,0.0,0.0,96,0.11,,---,0.11,VWS V14.00,2013-05-10 05:34:00,
2013-05-10 00:39:00,65.5,64.3,29.93,WSW,253,0.0,0.0,96,0.11,,---,0.11,VWS V14.00,2013-05-10 05:39:00,
2013-05-10 00:44:00,65.5,64.6,29.93,WSW,253,0.0,0.0,97,0.11,,---,0.11,VWS V14.00,2013-05-10 05:44:00,
2013-05-10 00:49:00,65.4,64.5,29.93,WSW,253,0.0,0.0,97,0.11,,---,0.11,VWS V14.00,2013-05-10 05:49:00,
2013-05-10 00:54:00,65.4,64.5,29.93,WSW,254,0.0,0.0,97,0.11,,---,0.11,VWS V14.00,2013-05-10 05:54:00,
2013-05-10 00:59:00,65.3,64.4,29.93,WSW,256,0.0,0.0,97,0.11,,---,0.12,VWS V14.00,2013-05-10 05:59:00,
2013-05-10 01:04:00,65.2,64.3,29.93,WNW,295,0.0,0.0,97,0.06,,---,0.12,VWS V14.00,2013-05-10 06:04:00,
2013-05-10 01:09:00,65.1,64.2,29.93,WNW,298,0.0,0.0,97,0.02,,---,0.12,VWS V14.00,2013-05-10 06:09:00,
2013-05-10 01:14:00,65.1,64.2,29.93,WNW,298,0.0,0.0,97,0.01,,---,0.12,VWS V14.00,2013-05-10 06:14:00,
2013-05-10 01:19:00,65.1,64.2,29.93,WNW,298,0.0,0.0,97,0.01,,---,0.12,VWS V14.00,2013-05-10 06:19:00,
2013-05-10 01:24:00,65.1,64.2,29.93,WNW,298,0.0,0.0,97,0.01,,---,0.12,VWS V14.00,2013-05-10 06:24:00,
2013-05-10 01:29:00,65.1,64.2,29.93,ENE,57,0.0,0.0,97,0.01,,---,0.12,VWS V14.00,2013-05-10 06:29:00,
2013-05-10 01:34:00,65.1,64.2,29.93,NNE,23,0.0,0.0,97,0.01,,---,0.12,VWS V14.00,2013-05-10 06:34:00,
2013-05-10 01:39:00,65.1,64.2,29.93,NNE,23,0.0,0.0,97,0.01,,---,0.12,VWS V14.00,2013-05-10 06:39:00,
2013-05-10 01:44:00,65.0,63.8,29.93,NNE,23,0.0,0.0,96,0.01,,---,0.12,VWS V14.00,2013-05-10 06:44:00,
2013-05-10 01:49:00,65.0,63.8,29.93,NNE,23,0.0,0.0,96,0.02,,---,0.13,VWS V14.00,2013-05-10 06:49:00,
2013-05-10 01:54:00,65.0,63.8,29.93,NNE,23,0.0,0.0,96,0.06,,---,0.17,VWS V14.00,2013-05-10 06:54:00,
2013-05-10 01:59:00,65.0,64.1,29.93,South,188,0.0,2.0,97,0.12,,---,0.24,VWS V14.00,2013-05-10 06:59:00,
2013-05-10 02:04:00,64.9,64.0,29.93,South,190,0.0,4.0,97,0.17,,---,0.29,VWS V14.00,2013-05-10 07:04:00,
2013-05-10 02:09:00,64.7,63.8,29.93,NW,308,0.0,4.0,97,0.18,,---,0.30,VWS V14.00,2013-05-10 07:09:00,
2013-05-10 02:14:00,64.6,63.7,29.93,NW,309,0.0,0.0,97,0.18,,---,0.30,VWS V14.00,2013-05-10 07:14:00,
2013-05-10 02:20:00,64.6,63.7,29.93,NW,309,0.0,0.0,97,0.18,,---,0.30,VWS V14.00,2013-05-10 07:20:00,
2013-05-10 02:25:00,64.6,63.7,29.93,NW,309,0.0,0.0,97,0.18,,---,0.30,VWS V14.00,2013-05-10 07:25:00,
2013-05-10 02:30:00,64.6,63.7,29.93,NW,309,0.0,0.0,97,0.18,,---,0.30,VWS V14.00,2013-05-10 07:30:00,
2013-05-10 02:35:00,64.5,63.6,29.93,NW,309,0.0,0.0,97,0.18,,---,0.30,VWS V14.00,2013-05-10 07:35:00,
2013-05-10 02:40:00,64.5,63.6,29.93,NW,309,0.0,0.0,97,0.18,,---,0.30,VWS V14.00,2013-05-10 07:40:00,
2013-05-10 02:45:00,64.5,63.6,29.93,NW,309,0.0,0.0,97,0.18,,---,0.30,VWS V14.00,2013-05-10 07:45:00,
2013-05-10 02:51:00,64.4,63.5,29.93,NW,309,0.0,0.0,97,0.16,,---,0.30,VWS V14.00,2013-05-10 07:51:00,
2013-05-10 02:56:00,64.3,63.4,29.93,NW,309,0.0,0.0,97,0.12,,---,0.30,VWS V14.00,2013-05-10 07:56:00,
2013-05-10 03:01:00,64.3,63.4,29.93,NW,309,0.0,0.0,97,0.05,,---,0.30,VWS V14.00,2013-05-10 08:01:00,
2013-05-10 03:06:00,64.2,63.3,29.93,NW,309,0.0,0.0,97,0.01,,---,0.30,VWS V14.00,2013-05-10 08:06:00,
2013-05-10 03:11:00,64.2,63.3,29.93,NW,309,0.0,0.0,97,0.00,,---,0.30,VWS V14.00,2013-05-10 08:11:00,
2013-05-10 03:16:00,64.1,63.2,29.93,NW,309,0.0,0.0,97,0.00,,---,0.30,VWS V14.00,2013-05-10 08:16:00,
2013-05-10 03:21:00,64.1,63.2,29.93,NW,309,0.0,0.0,97,0.00,,---,0.30,VWS V14.00,2013-05-10 08:21:00,
2013-05-10 03:26:00,64.0,63.1,29.93,NW,309,0.0,0.0,97,0.00,,---,0.30,VWS V14.00,2013-05-10 08:26:00,
2013-05-10 03:31:00,63.8,62.9,29.92,NW,309,0.0,0.0,97,0.00,,---,0.30,VWS V14.00,2013-05-10 08:31:00,
2013-05-10 03:36:00,63.7,62.8,29.92,NW,309,0.0,0.0,97,0.00,,---,0.30,VWS V14.00,2013-05-10 08:36:00,
2013-05-10 03:41:00,63.5,62.6,29.92,NW,309,0.0,0.0,97,0.00,,---,0.30,VWS V14.00,2013-05-10 08:41:00,
2013-05-10 03:46:00,63.4,62.5,29.92,NW,309,0.0,0.0,97,0.00,,---,0.30,VWS V14.00,2013-05-10 08:46:00,
2013-05-10 03:51:00,63.3,62.4,29.92,NW,307,0.0,0.0,97,0.00,,---,0.30,VWS V14.00,2013-05-10 08:51:00,
2013-05-10 03:57:00,63.2,62.3,29.93,NW,307,0.0,0.0,97,0.00,,---,0.30,VWS V14.00,2013-05-10 08:57:00,
2013-05-10 04:02:00,63.1,62.2,29.93,NW,307,0.0,0.0,97,0.00,,---,0.30,VWS V14.00,2013-05-10 09:02:00,
2013-05-10 04:08:00,62.9,62.0,29.93,NW,307,0.0,0.0,97,0.00,,---,0.30,VWS V14.00,2013-05-10 09:08:00,
2013-05-10 04:13:00,62.9,62.0,29.92,NW,307,0.0,0.0,97,0.00,,---,0.30,VWS V14.00,2013-05-10 09:13:00,
2013-05-10 04:18:00,62.9,62.0,29.92,NW,307,0.0,0.0,97,0.00,,---,0.30,VWS V14.00,2013-05-10 09:18:00,
2013-05-10 04:23:00,62.9,62.0,29.92,NW,307,0.0,0.0,97,0.00,,---,0.30,VWS V14.00,2013-05-10 09:23:00,
2013-05-10 04:28:00,62.9,62.0,29.93,NW,307,0.0,0.0,97,0.00,,---,0.30,VWS V14.00,2013-05-10 09:28:00,
2013-05-10 04:33:00,62.9,62.0,29.93,NW,307,0.0,0.0,97,0.00,,---,0.30,VWS V14.00,2013-05-10 09:33:00,
2013-05-10 04:38:00,62.9,62.0,29.93,NW,307,0.0,0.0,97,0.00,,---,0.30,VWS V14.00,2013-05-10 09:38:00,
2013-05-10 04:43:00,62.9,62.0,29.93,NW,307,0.0,0.0,97,0.00,,---,0.30,VWS V14.00,2013-05-10 09:43:00,
2013-05-10 04:48:00,62.9,62.0,29.93,NW,307,0.0,0.0,97,0.00,,---,0.30,VWS V14.00,2013-05-10 09:48:00,
2013-05-10 04:53:00,62.9,62.0,29.93,NW,307,0.0,0.0,97,0.00,,---,0.30,VWS V14.00,2013-05-10 09:53:00,
2013-05-10 04:58:00,62.9,62.0,29.93,NW,307,0.0,0.0,97,0.00,,---,0.30,VWS V14.00,2013-05-10 09:58:00,
2013-05-10 05:04:00,62.9,62.0,29.93,NW,307,0.0,0.0,97,0.00,,---,0.30,VWS V14.00,2013-05-10 10:04:00,
2013-05-10 05:09:00,62.9,62.0,29.93,NW,307,0.0,0.0,97,0.00,,---,0.30,VWS V14.00,2013-05-10 10:09:00,
2013-05-10 05:14:00,62.9,62.0,29.93,NW,307,0.0,0.0,97,0.00,,---,0.30,VWS V14.00,2013-05-10 10:14:00,
2013-05-10 05:19:00,62.9,62.0,29.93,NW,307,0.0,0.0,97,0.00,,---,0.30,VWS V14.00,2013-05-10 10:19:00,
2013-05-10 05:24:00,62.9,62.0,29.93,NW,307,0.0,0.0,97,0.00,,---,0.30,VWS V14.00,2013-05-10 10:24:00,
2013-05-10 05:29:00,62.9,62.0,29.93,NW,307,0.0,0.0,97,0.00,,---,0.30,VWS V14.00,2013-05-10 10:29:00,
2013-05-10 05:34:00,62.9,62.0,29.93,NW,307,0.0,0.0,97,0.00,,---,0.30,VWS V14.00,2013-05-10 10:34:00,
2013-05-10 05:39:00,62.9,62.0,29.93,NW,307,0.0,0.0,97,0.00,,---,0.30,VWS V14.00,2013-05-10 10:39:00,
2013-05-10 05:44:00,62.9,62.0,29.92,NW,307,0.0,0.0,97,0.00,,---,0.30,VWS V14.00,2013-05-10 10:44:00,
2013-05-10 05:49:00,62.9,62.0,29.92,NW,307,0.0,0.0,97,0.00,,---,0.30,VWS V14.00,2013-05-10 10:49:00,
2013-05-10 05:55:00,62.9,62.0,29.92,NW,307,0.0,0.0,97,0.00,,---,0.30,VWS V14.00,2013-05-10 10:55:00,
2013-05-10 06:00:00,62.9,62.0,29.93,NW,307,0.0,0.0,97,0.00,,---,0.30,VWS V14.00,2013-05-10 11:00:00,
2013-05-10 06:05:00,62.9,62.0,29.93,NW,307,0.0,0.0,97,0.00,,---,0.30,VWS V14.00,2013-05-10 11:05:00,
2013-05-10 06:10:00,62.9,62.0,29.93,NW,307,0.0,0.0,97,0.00,,---,0.30,VWS V14.00,2013-05-10 11:10:00,
2013-05-10 06:15:00,62.9,62.0,29.93,NW,307,0.0,0.0,97,0.00,,---,0.30,VWS V14.00,2013-05-10 11:15:00,
2013-05-10 06:20:00,62.9,62.0,29.93,NW,307,0.0,0.0,97,0.00,,---,0.30,VWS V14.00,2013-05-10 11:20:00,
2013-05-10 06:25:00,62.9,62.0,29.93,NW,307,0.0,0.0,97,0.00,,---,0.30,VWS V14.00,2013-05-10 11:25:00,
2013-05-10 06:30:00,62.9,62.0,29.94,NW,307,0.0,0.0,97,0.00,,---,0.30,VWS V14.00,2013-05-10 11:30:00,
2013-05-10 06:35:00,62.9,62.0,29.94,NW,307,0.0,0.0,97,0.00,,---,0.30,VWS V14.00,2013-05-10 11:35:00,
2013-05-10 06:40:00,62.9,62.0,29.94,NW,307,0.0,0.0,97,0.00,,---,0.30,VWS V14.00,2013-05-10 11:40:00,
2013-05-10 06:45:00,62.9,62.0,29.95,NW,307,0.0,0.0,97,0.00,,---,0.30,VWS V14.00,2013-05-10 11:45:00,
2013-05-10 06:51:00,62.9,62.0,29.95,NW,307,0.0,0.0,97,0.00,,---,0.30,VWS V14.00,2013-05-10 11:51:00,
2013-05-10 06:56:00,62.9,62.0,29.95,NW,307,0.0,0.0,97,0.00,,---,0.30,VWS V14.00,2013-05-10 11:56:00,
2013-05-10 07:01:00,62.9,62.0,29.96,NW,307,0.0,0.0,97,0.00,,---,0.30,VWS V14.00,2013-05-10 12:01:00,
2013-05-10 07:06:00,62.9,62.0,29.96,NW,307,0.0,0.0,97,0.00,,---,0.30,VWS V14.00,2013-05-10 12:06:00,
2013-05-10 07:11:00,62.9,62.0,29.96,NW,307,0.0,0.0,97,0.00,,---,0.30,VWS V14.00,2013-05-10 12:11:00,
2013-05-10 07:16:00,62.9,62.0,29.96,NW,307,0.0,0.0,97,0.00,,---,0.30,VWS V14.00,2013-05-10 12:16:00,
2013-05-10 07:21:00,62.9,62.0,29.96,NW,307,0.0,0.0,97,0.00,,---,0.30,VWS V14.00,2013-05-10 12:21:00,
2013-05-10 07:26:00,62.9,62.0,29.96,NW,307,0.0,0.0,97,0.00,,---,0.30,VWS V14.00,2013-05-10 12:26:00,
2013-05-10 07:31:00,62.9,62.0,29.97,NW,307,0.0,0.0,97,0.00,,---,0.30,VWS V14.00,2013-05-10 12:31:00,
2013-05-10 07:36:00,62.9,62.0,29.97,NW,307,0.0,0.0,97,0.00,,---,0.30,VWS V14.00,2013-05-10 12:36:00,
2013-05-10 07:41:00,60.3,58.6,29.97,NNE,30,0.0,7.0,94,0.00,,---,0.30,VWS V14.00,2013-05-10 12:41:00,
2013-05-10 07:46:00,60.3,58.3,29.98,NNE,30,0.0,0.0,93,0.00,,---,0.30,VWS V14.00,2013-05-10 12:46:00,
2013-05-10 07:51:00,60.2,58.2,29.98,NNE,27,0.0,4.0,93,0.00,,---,0.30,VWS V14.00,2013-05-10 12:51:00,
2013-05-10 07:56:00,60.1,58.1,29.98,NE,44,6.0,9.0,93,0.00,,---,0.30,VWS V14.00,2013-05-10 12:56:00,
2013-05-10 08:01:00,60.1,58.1,29.99,North,6,2.0,5.0,93,0.00,,---,0.30,VWS V14.00,2013-05-10 13:01:00,
2013-05-10 08:06:00,60.1,58.1,29.99,NNE,24,9.0,10.0,93,0.00,,---,0.30,VWS V14.00,2013-05-10 13:06:00,
2013-05-10 08:11:00,60.1,58.1,29.99,NNE,32,1.0,1.0,93,0.00,,---,0.30,VWS V14.00,2013-05-10 13:11:00,
2013-05-10 08:16:00,60.1,58.1,29.99,NNE,29,0.0,0.0,93,0.00,,---,0.30,VWS V14.00,2013-05-10 13:16:00,
2013-05-10 08:21:00,60.4,58.4,29.99,NNE,32,12.0,13.0,93,0.00,,---,0.30,VWS V14.00,2013-05-10 13:21:00,
2013-05-10 08:26:00,60.5,58.2,29.99,NE,39,1.0,7.0,92,0.00,,---,0.30,VWS V14.00,2013-05-10 13:26:00,
2013-05-10 08:31:00,60.6,58.3,29.99,North,1,12.0,12.0,92,0.00,,---,0.30,VWS V14.00,2013-05-10 13:31:00,
2013-05-10 08:36:00,60.6,58.3,29.99,NE,40,4.0,6.0,92,0.00,,---,0.30,VWS V14.00,2013-05-10 13:36:00,
2013-05-10 08:41:00,60.6,58.0,29.99,NE,45,3.0,5.0,91,0.00,,---,0.30,VWS V14.00,2013-05-10 13:41:00,
2013-05-10 08:46:00,60.6,58.0,30.00,NE,50,0.0,7.0,91,0.00,,---,0.30,VWS V14.00,2013-05-10 13:46:00,
2013-05-10 08:51:00,60.7,58.1,30.00,NNE,26,0.0,9.0,91,0.00,,---,0.30,VWS V14.00,2013-05-10 13:51:00,
2013-05-10 08:56:00,61.0,58.7,30.00,NNE,23,4.0,4.0,92,0.00,,---,0.30,VWS V14.00,2013-05-10 13:56:00,
2013-05-10 09:01:00,61.3,58.7,30.00,NNE,20,3.0,6.0,91,0.00,,---,0.30,VWS V14.00,2013-05-10 14:01:00,
2013-05-10 09:06:00,61.3,58.7,30.00,NNE,13,7.0,8.0,91,0.00,,---,0.30,VWS V14.00,2013-05-10 14:06:00,
2013-05-10 09:11:00,61.2,58.2,30.00,NNE,28,3.0,3.0,90,0.00,,---,0.30,VWS V14.00,2013-05-10 14:11:00,
2013-05-10 09:16:00,61.3,58.7,30.00,North,1,5.0,11.0,91,0.00,,---,0.30,VWS V14.00,2013-05-10 14:16:00,
2013-05-10 09:21:00,61.4,58.5,30.00,NNE,32,6.0,9.0,90,0.00,,---,0.30,VWS V14.00,2013-05-10 14:21:00,
2013-05-10 09:26:00,61.6,58.6,30.00,NE,36,4.0,12.0,90,0.00,,---,0.30,VWS V14.00,2013-05-10 14:26:00,
2013-05-10 09:31:00,61.8,58.8,30.01,NE,44,0.0,4.0,90,0.00,,---,0.30,VWS V14.00,2013-05-10 14:31:00,
2013-05-10 09:36:00,62.1,58.8,30.01,NNE,23,0.0,0.0,89,0.00,,---,0.30,VWS V14.00,2013-05-10 14:36:00,
2013-05-10 09:41:00,62.4,58.8,30.01,NE,49,4.0,9.0,88,0.00,,---,0.30,VWS V14.00,2013-05-10 14:41:00,
2013-05-10 09:46:00,62.5,58.9,30.02,NNE,13,4.0,6.0,88,0.00,,---,0.30,VWS V14.00,2013-05-10 14:46:00,
2013-05-10 09:51:00,62.8,59.2,30.02,NNW,335,0.0,0.0,88,0.00,,---,0.30,VWS V14.00,2013-05-10 14:51:00,
2013-05-10 09:56:00,62.6,58.7,30.02,North,359,0.0,4.0,87,0.00,,---,0.30,VWS V14.00,2013-05-10 14:56:00,
2013-05-10 10:01:00,62.3,58.4,30.03,WNW,285,4.0,4.0,87,0.00,,---,0.30,VWS V14.00,2013-05-10 15:01:00,
2013-05-10 10:06:00,62.5,58.6,30.03,West,277,0.0,3.0,87,0.00,,---,0.30,VWS V14.00,2013-05-10 15:06:00,
2013-05-10 10:11:00,63.0,59.1,30.03,North,3,0.0,2.0,87,0.00,,---,0.30,VWS V14.00,2013-05-10 15:11:00,
2013-05-10 10:16:00,63.8,60.2,30.03,NE,52,0.0,4.0,88,0.00,,---,0.30,VWS V14.00,2013-05-10 15:16:00,
2013-05-10 10:21:00,65.1,60.5,30.03,NE,34,0.0,0.0,85,0.00,,---,0.30,VWS V14.00,2013-05-10 15:21:00,
2013-05-10 10:26:00,65.0,59.4,30.03,West,275,1.0,2.0,82,0.00,,---,0.30,VWS V14.00,2013-05-10 15:26:00,
2013-05-10 10:31:00,64.8,59.5,30.02,NW,314,0.0,0.0,83,0.00,,---,0.30,VWS V14.00,2013-05-10 15:31:00,
2013-05-10 10:36:00,64.8,59.9,30.02,WNW,285,0.0,0.0,84,0.00,,---,0.30,VWS V14.00,2013-05-10 15:36:00,
2013-05-10 10:41:00,65.4,60.1,30.02,WSW,252,0.0,5.0,83,0.00,,---,0.30,VWS V14.00,2013-05-10 15:41:00,
2013-05-10 10:46:00,65.6,59.6,30.02,North,0,0.0,0.0,81,0.00,,---,0.30,VWS V14.00,2013-05-10 15:46:00,
2013-05-10 10:51:00,65.4,59.4,30.02,West,278,0.0,5.0,81,0.00,,---,0.30,VWS V14.00,2013-05-10 15:51:00,
2013-05-10 10:57:00,65.8,59.8,30.02,North,11,0.0,0.0,81,0.00,,---,0.30,VWS V14.00,2013-05-10 15:57:00,
2013-05-10 11:02:00,66.5,60.2,30.02,West,270,1.0,4.0,80,0.00,,---,0.30,VWS V14.00,2013-05-10 16:02:00,
2013-05-10 11:07:00,67.2,60.8,30.02,NNE,29,0.0,1.0,80,0.00,,---,0.30,VWS V14.00,2013-05-10 16:07:00,
2013-05-10 11:12:00,67.8,60.0,30.01,ENE,60,0.0,11.0,76,0.00,,---,0.30,VWS V14.00,2013-05-10 16:12:00,
2013-05-10 11:17:00,67.9,59.7,30.01,NNE,30,0.0,10.0,75,0.00,,---,0.30,VWS V14.00,2013-05-10 16:17:00,
2013-05-10 11:22:00,68.7,60.5,30.01,NNE,30,1.0,3.0,75,0.00,,---,0.30,VWS V14.00,2013-05-10 16:22:00,
2013-05-10 11:27:00,68.9,59.5,30.01,NNE,33,3.0,12.0,72,0.00,,---,0.30,VWS V14.00,2013-05-10 16:27:00,
2013-05-10 11:32:00,68.1,59.5,30.01,North,7,0.0,7.0,74,0.00,,---,0.30,VWS V14.00,2013-05-10 16:32:00,
2013-05-10 11:37:00,68.6,60.0,30.01,North,0,0.0,3.0,74,0.00,,---,0.30,VWS V14.00,2013-05-10 16:37:00,
2013-05-10 11:42:00,68.6,59.6,30.01,NNE,22,0.0,9.0,73,0.00,,---,0.30,VWS V14.00,2013-05-10 16:42:00,
2013-05-10 11:47:00,68.5,60.3,30.01,NE,41,0.0,3.0,75,0.00,,---,0.30,VWS V14.00,2013-05-10 16:47:00,
2013-05-10 11:52:00,69.1,59.7,30.01,NNE,32,0.0,2.0,72,0.00,,---,0.30,VWS V14.00,2013-05-10 16:52:00,
2013-05-10 11:57:00,69.6,59.4,30.00,North,8,0.0,10.0,70,0.00,,---,0.30,VWS V14.00,2013-05-10 16:57:00,
2013-05-10 12:02:00,69.3,59.5,30.00,North,4,0.0,0.0,71,0.00,,---,0.30,VWS V14.00,2013-05-10 17:02:00,
2013-05-10 12:07:00,69.2,59.4,30.00,NNE,25,7.0,7.0,71,0.00,,---,0.30,VWS V14.00,2013-05-10 17:07:00,
2013-05-10 12:12:00,69.4,59.6,30.00,NNE,20,0.0,0.0,71,0.00,,---,0.30,VWS V14.00,2013-05-10 17:12:00,
2013-05-10 12:17:00,70.8,59.3,30.00,NE,34,9.0,11.0,67,0.00,,---,0.30,VWS V14.00,2013-05-10 17:17:00,
2013-05-10 12:22:00,69.9,59.3,30.00,NW,326,0.0,3.0,69,0.00,,---,0.30,VWS V14.00,2013-05-10 17:22:00,
2013-05-10 12:27:00,69.7,59.1,29.99,NNE,28,7.0,7.0,69,0.00,,---,0.30,VWS V14.00,2013-05-10 17:27:00,
2013-05-10 12:32:00,70.2,59.6,29.99,NNE,29,3.0,10.0,69,0.00,,---,0.30,VWS V14.00,2013-05-10 17:32:00,
2013-05-10 12:37:00,69.7,58.7,29.99,NNE,27,0.0,9.0,68,0.00,,---,0.30,VWS V14.00,2013-05-10 17:37:00,
2013-05-10 12:43:00,69.3,59.1,29.99,NNW,348,0.0,0.0,70,0.00,,---,0.30,VWS V14.00,2013-05-10 17:43:00,
2013-05-10 12:48:00,70.4,58.9,29.99,NE,43,0.0,11.0,67,0.00,,---,0.30,VWS V14.00,2013-05-10 17:48:00,
2013-05-10 12:54:00,71.8,59.0,29.99,NNE,22,0.0,4.0,64,0.00,,---,0.30,VWS V14.00,2013-05-10 17:54:00,
2013-05-10 12:59:00,71.0,58.7,30.00,NE,42,1.0,7.0,65,0.00,,---,0.30,VWS V14.00,2013-05-10 17:59:00,
2013-05-10 13:05:00,70.8,58.9,30.00,NNE,12,1.0,5.0,66,0.00,,---,0.30,VWS V14.00,2013-05-10 18:05:00,
2013-05-10 13:10:00,71.6,59.7,30.00,NE,39,0.0,8.0,66,0.00,,---,0.30,VWS V14.00,2013-05-10 18:10:00,
2013-05-10 13:15:00,71.3,58.9,29.99,North,5,11.0,11.0,65,0.00,,---,0.30,VWS V14.00,2013-05-10 18:15:00,
2013-05-10 13:21:00,71.1,57.9,29.99,NNE,27,4.0,9.0,63,0.00,,---,0.30,VWS V14.00,2013-05-10 18:21:00,
2013-05-10 13:26:00,71.4,58.2,29.99,NNE,23,0.0,9.0,63,0.00,,---,0.30,VWS V14.00,2013-05-10 18:26:00,
2013-05-10 13:31:00,71.4,57.7,30.00,North,9,0.0,0.0,62,0.00,,---,0.30,VWS V14.00,2013-05-10 18:31:00,
2013-05-10 13:36:00,71.5,57.8,30.00,NNE,29,3.0,12.0,62,0.00,,---,0.30,VWS V14.00,2013-05-10 18:36:00,
2013-05-10 13:41:00,70.6,57.4,30.00,NNE,20,0.0,5.0,63,0.00,,---,0.30,VWS V14.00,2013-05-10 18:41:00,
2013-05-10 13:46:00,70.0,58.1,30.00,NNE,18,0.0,0.0,66,0.00,,---,0.30,VWS V14.00,2013-05-10 18:46:00,
2013-05-10 13:51:00,70.3,57.6,30.00,WSW,243,3.0,3.0,64,0.00,,---,0.30,VWS V14.00,2013-05-10 18:51:00,
2013-05-10 13:57:00,70.5,58.6,30.00,NE,37,5.0,7.0,66,0.00,,---,0.30,VWS V14.00,2013-05-10 18:57:00,
2013-05-10 14:02:00,70.5,58.6,30.00,NNE,32,0.0,7.0,66,0.00,,---,0.30,VWS V14.00,2013-05-10 19:02:00,
2013-05-10 14:07:00,70.5,57.8,30.00,NE,45,0.0,9.0,64,0.00,,---,0.30,VWS V14.00,2013-05-10 19:07:00,
2013-05-10 14:12:00,70.1,57.8,30.00,NE,49,2.0,6.0,65,0.00,,---,0.30,VWS V14.00,2013-05-10 19:12:00,
2013-05-10 14:17:00,70.4,58.9,30.00,NE,37,10.0,13.0,67,0.00,,---,0.30,VWS V14.00,2013-05-10 19:17:00,
2013-05-10 14:22:00,70.6,58.3,30.00,NNE,18,9.0,13.0,65,0.00,,---,0.30,VWS V14.00,2013-05-10 19:22:00,
2013-05-10 14:27:00,70.0,57.7,30.00,NNE,20,4.0,10.0,65,0.00,,---,0.30,VWS V14.00,2013-05-10 19:27:00,
2013-05-10 14:32:00,69.7,57.8,30.00,NNE,24,2.0,11.0,66,0.00,,---,0.30,VWS V14.00,2013-05-10 19:32:00,
2013-05-10 14:37:00,69.8,58.4,30.00,NNE,15,0.0,0.0,67,0.00,,---,0.30,VWS V14.00,2013-05-10 19:37:00,
2013-05-10 14:42:00,70.2,58.7,30.00,NNE,21,2.0,6.0,67,0.00,,---,0.30,VWS V14.00,2013-05-10 19:42:00,
2013-05-10 14:47:00,70.1,57.4,30.00,NE,43,0.0,7.0,64,0.00,,---,0.30,VWS V14.00,2013-05-10 19:47:00,
2013-05-10 14:52:00,69.9,57.6,30.00,NE,35,9.0,9.0,65,0.00,,---,0.30,VWS V14.00,2013-05-10 19:52:00,
2013-05-10 14:57:00,69.7,57.0,30.00,North,7,0.0,9.0,64,0.00,,---,0.30,VWS V14.00,2013-05-10 19:57:00,
2013-05-10 15:02:00,69.7,57.4,30.00,NNE,18,0.0,0.0,65,0.00,,---,0.30,VWS V14.00,2013-05-10 20:02:00,
2013-05-10 15:07:00,69.7,56.6,30.00,NNE,14,0.0,3.0,63,0.00,,---,0.30,VWS V14.00,2013-05-10 20:07:00,
2013-05-10 15:12:00,69.8,57.1,30.00,NNE,23,0.0,0.0,64,0.00,,---,0.30,VWS V14.00,2013-05-10 20:12:00,
2013-05-10 15:17:00,70.2,57.5,30.00,NNE,28,1.0,2.0,64,0.00,,---,0.30,VWS V14.00,2013-05-10 20:17:00,
2013-05-10 15:22:00,70.5,57.3,30.00,NNE,22,1.0,3.0,63,0.00,,---,0.30,VWS V14.00,2013-05-10 20:22:00,
2013-05-10 15:27:00,70.9,57.2,30.00,NNE,33,0.0,0.0,62,0.00,,---,0.30,VWS V14.00,2013-05-10 20:27:00,
2013-05-10 15:32:00,71.1,57.4,30.00,North,359,5.0,8.0,62,0.00,,---,0.30,VWS V14.00,2013-05-10 20:32:00,
2013-05-10 15:37:00,70.6,56.1,30.00,NNE,23,1.0,6.0,60,0.00,,---,0.30,VWS V14.00,2013-05-10 20:37:00,
2013-05-10 15:42:00,70.5,57.3,30.00,NNE,14,0.0,3.0,63,0.00,,---,0.30,VWS V14.00,2013-05-10 20:42:00,
2013-05-10 15:47:00,70.4,56.8,30.00,NE,37,7.0,13.0,62,0.00,,---,0.30,VWS V14.00,2013-05-10 20:47:00,
2013-05-10 15:52:00,70.2,56.6,30.00,NNE,24,6.0,7.0,62,0.00,,---,0.30,VWS V14.00,2013-05-10 20:52:00,
2013-05-10 15:57:00,70.8,56.7,29.99,NNE,27,6.0,6.0,61,0.00,,---,0.30,VWS V14.00,2013-05-10 20:57:00,
2013-05-10 16:02:00,72.0,57.4,29.99,WNW,296,0.0,2.0,60,0.00,,---,0.30,VWS V14.00,2013-05-10 21:02:00,
2013-05-10 16:07:00,72.0,56.9,29.99,NE,39,1.0,9.0,59,0.00,,---,0.30,VWS V14.00,2013-05-10 21:07:00,
2013-05-10 16:12:00,71.6,57.0,29.99,NNE,23,0.0,8.0,60,0.00,,---,0.30,VWS V14.00,2013-05-10 21:12:00,
2013-05-10 16:17:00,71.4,56.8,29.99,NNE,25,0.0,0.0,60,0.00,,---,0.30,VWS V14.00,2013-05-10 21:17:00,
2013-05-10 16:22:00,71.8,57.2,29.99,NNE,16,0.0,0.0,60,0.00,,---,0.30,VWS V14.00,2013-05-10 21:22:00,
2013-05-10 16:27:00,72.1,57.0,29.99,North,1,0.0,0.0,59,0.00,,---,0.30,VWS V14.00,2013-05-10 21:27:00,
2013-05-10 16:32:00,72.3,56.7,29.99,NE,47,4.0,4.0,58,0.00,,---,0.30,VWS V14.00,2013-05-10 21:32:00,
2013-05-10 16:37:00,71.9,56.3,29.99,North,1,3.0,3.0,58,0.00,,---,0.30,VWS V14.00,2013-05-10 21:37:00,
2013-05-10 16:42:00,72.0,57.4,29.98,NE,37,0.0,2.0,60,0.00,,---,0.30,VWS V14.00,2013-05-10 21:42:00,
2013-05-10 16:47:00,72.2,57.6,29.98,NE,37,0.0,4.0,60,0.00,,---,0.30,VWS V14.00,2013-05-10 21:47:00,
2013-05-10 16:52:00,72.0,57.4,29.98,NNE,15,4.0,6.0,60,0.00,,---,0.30,VWS V14.00,2013-05-10 21:52:00,
2013-05-10 16:58:00,71.2,56.6,29.98,NNE,32,0.0,8.0,60,0.00,,---,0.30,VWS V14.00,2013-05-10 21:58:00,
2013-05-10 17:00:00,71.0,56.4,29.98,NNE,13,2.0,11.0,60,0.00,,---,0.30,VWS V14.00,2013-05-10 22:00:00,
2013-05-10 17:03:00,70.7,56.6,29.98,NNE,30,0.0,11.0,61,0.00,,---,0.30,VWS V14.00,2013-05-10 22:03:00,
2013-05-10 17:04:00,70.6,57.0,29.98,NNE,26,9.0,9.0,62,0.00,,---,0.30,VWS V14.00,2013-05-10 22:04:00,
2013-05-10 17:09:00,70.5,56.9,29.98,NE,51,0.0,6.0,62,0.00,,---,0.30,VWS V14.00,2013-05-10 22:09:00,
2013-05-10 17:10:00,70.5,57.3,29.98,NE,49,0.0,0.0,63,0.00,,---,0.30,VWS V14.00,2013-05-10 22:10:00,
2013-05-10 17:15:00,70.9,57.2,29.98,NE,37,7.0,9.0,62,0.00,,---,0.30,VWS V14.00,2013-05-10 22:15:00,
2013-05-10 17:20:00,71.0,56.9,29.98,NNE,27,0.0,8.0,61,0.00,,---,0.30,VWS V14.00,2013-05-10 22:20:00,
2013-05-10 17:25:00,70.8,56.7,29.98,NNE,25,0.0,4.0,61,0.00,,---,0.30,VWS V14.00,2013-05-10 22:25:00,
2013-05-10 17:30:00,70.7,56.6,29.99,NNE,33,0.0,10.0,61,0.00,,---,0.30,VWS V14.00,2013-05-10 22:30:00,
2013-05-10 17:35:00,70.7,56.6,29.99,North,1,1.0,11.0,61,0.00,,---,0.30,VWS V14.00,2013-05-10 22:35:00,
2013-05-10 17:40:00,70.6,57.0,29.99,North,6,0.0,4.0,62,0.00,,---,0.30,VWS V14.00,2013-05-10 22:40:00,
2013-05-10 17:45:00,70.8,56.7,29.99,NE,34,6.0,9.0,61,0.00,,---,0.30,VWS V14.00,2013-05-10 22:45:00,
2013-05-10 17:50:00,70.4,56.3,29.99,NNE,12,0.0,13.0,61,0.00,,---,0.30,VWS V14.00,2013-05-10 22:50:00,
2013-05-10 17:55:00,70.3,56.2,29.99,NNE,32,0.0,6.0,61,0.00,,---,0.30,VWS V14.00,2013-05-10 22:55:00,
2013-05-10 18:00:00,70.7,56.6,29.98,NNE,30,0.0,5.0,61,0.00,,---,0.30,VWS V14.00,2013-05-10 23:00:00,
2013-05-10 18:05:00,71.0,56.0,29.98,NNE,25,0.0,0.0,59,0.00,,---,0.30,VWS V14.00,2013-05-10 23:05:00,
2013-05-10 18:11:00,70.3,56.2,29.98,NE,42,0.0,0.0,61,0.00,,---,0.30,VWS V14.00,2013-05-10 23:11:00,
2013-05-10 18:16:00,69.7,56.1,29.99,NE,44,0.0,6.0,62,0.00,,---,0.30,VWS V14.00,2013-05-10 23:16:00,
2013-05-10 18:21:00,69.4,56.3,29.99,NNE,24,0.0,10.0,63,0.00,,---,0.30,VWS V14.00,2013-05-10 23:21:00,
2013-05-10 18:26:00,69.2,56.1,29.99,NNE,28,0.0,5.0,63,0.00,,---,0.30,VWS V14.00,2013-05-10 23:26:00,
2013-05-10 18:31:00,69.1,56.4,29.99,NNE,25,0.0,9.0,64,0.00,,---,0.30,VWS V14.00,2013-05-10 23:31:00,
2013-05-10 18:36:00,69.0,56.3,29.99,NNE,20,2.0,9.0,64,0.00,,---,0.30,VWS V14.00,2013-05-10 23:36:00,
2013-05-10 18:41:00,69.0,56.3,29.99,North,4,12.0,12.0,64,0.00,,---,0.30,VWS V14.00,2013-05-10 23:41:00,
2013-05-10 18:46:00,69.0,55.9,29.99,NNE,19,0.0,5.0,63,0.00,,---,0.30,VWS V14.00,2013-05-10 23:46:00,
2013-05-10 18:51:00,69.0,56.3,29.99,North,6,2.0,7.0,64,0.00,,---,0.30,VWS V14.00,2013-05-10 23:51:00,
2013-05-10 18:56:00,68.8,56.1,29.99,NNE,27,0.0,0.0,64,0.00,,---,0.30,VWS V14.00,2013-05-10 23:56:00,
2013-05-10 19:01:00,68.9,55.8,29.99,NNE,32,0.0,7.0,63,0.00,,---,0.30,VWS V14.00,2013-05-11 00:01:00,
2013-05-10 19:06:00,68.8,55.7,29.99,NNE,15,5.0,13.0,63,0.00,,---,0.30,VWS V14.00,2013-05-11 00:06:00,
2013-05-10 19:12:00,68.5,55.4,30.00,NE,41,4.0,11.0,63,0.00,,---,0.30,VWS V14.00,2013-05-11 00:12:00,
2013-05-10 19:17:00,68.3,55.2,30.00,North,8,1.0,10.0,63,0.00,,---,0.30,VWS V14.00,2013-05-11 00:17:00,
2013-05-10 19:22:00,68.2,55.1,30.00,NE,34,9.0,11.0,63,0.00,,---,0.30,VWS V14.00,2013-05-11 00:22:00,
2013-05-10 19:27:00,67.9,54.8,30.00,NNE,29,0.0,9.0,63,0.00,,---,0.30,VWS V14.00,2013-05-11 00:27:00,
2013-05-10 19:32:00,67.5,54.9,30.00,North,1,2.0,9.0,64,0.00,,---,0.30,VWS V14.00,2013-05-11 00:32:00,
2013-05-10 19:37:00,67.0,54.4,30.00,NNE,23,9.0,12.0,64,0.00,,---,0.30,VWS V14.00,2013-05-11 00:37:00,
2013-05-10 19:42:00,66.6,54.1,30.01,NNE,22,0.0,5.0,64,0.00,,---,0.30,VWS V14.00,2013-05-11 00:42:00,
2013-05-10 19:47:00,66.2,53.7,30.01,NNE,15,0.0,9.0,64,0.00,,---,0.30,VWS V14.00,2013-05-11 00:47:00,
2013-05-10 19:52:00,66.0,53.5,30.01,NNE,28,7.0,16.0,64,0.00,,---,0.30,VWS V14.00,2013-05-11 00:52:00,
2013-05-10 19:58:00,65.7,54.0,30.02,ENE,57,6.0,17.0,66,0.00,,---,0.30,VWS V14.00,2013-05-11 00:58:00,
2013-05-10 20:03:00,65.5,54.3,30.02,NNE,12,2.0,10.0,67,0.00,,---,0.30,VWS V14.00,2013-05-11 01:03:00,
2013-05-10 20:08:00,65.2,54.0,30.02,NNE,27,0.0,1.0,67,0.00,,---,0.30,VWS V14.00,2013-05-11 01:08:00,
2013-05-10 20:13:00,64.8,54.0,30.03,ENE,68,0.0,1.0,68,0.00,,---,0.30,VWS V14.00,2013-05-11 01:13:00,
2013-05-10 20:18:00,64.5,53.7,30.03,NE,36,1.0,7.0,68,0.00,,---,0.30,VWS V14.00,2013-05-11 01:18:00,
2013-05-10 20:23:00,64.2,53.0,30.03,NNE,27,8.0,12.0,67,0.00,,---,0.30,VWS V14.00,2013-05-11 01:23:00,
2013-05-10 20:28:00,64.0,52.8,30.03,NNE,24,0.0,9.0,67,0.00,,---,0.30,VWS V14.00,2013-05-11 01:28:00,
2013-05-10 20:33:00,63.8,52.7,30.03,NNE,27,4.0,10.0,67,0.00,,---,0.30,VWS V14.00,2013-05-11 01:33:00,
2013-05-10 20:38:00,63.8,52.7,30.03,NE,47,0.0,0.0,67,0.00,,---,0.30,VWS V14.00,2013-05-11 01:38:00,
2013-05-10 20:43:00,63.6,52.9,30.03,NNE,25,0.0,0.0,68,0.00,,---,0.30,VWS V14.00,2013-05-11 01:43:00,
2013-05-10 20:48:00,63.3,52.6,30.03,NNE,25,0.0,1.0,68,0.00,,---,0.30,VWS V14.00,2013-05-11 01:48:00,
2013-05-10 20:53:00,63.1,52.8,30.03,NE,37,0.0,0.0,69,0.00,,---,0.30,VWS V14.00,2013-05-11 01:53:00,
2013-05-10 20:58:00,62.9,52.6,30.03,NE,38,0.0,0.0,69,0.00,,---,0.30,VWS V14.00,2013-05-11 01:58:00,
2013-05-10 21:03:00,62.7,52.8,30.03,NNE,33,0.0,0.0,70,0.00,,---,0.30,VWS V14.00,2013-05-11 02:03:00,
2013-05-10 21:08:00,62.6,52.7,30.03,NNE,33,0.0,0.0,70,0.00,,---,0.30,VWS V14.00,2013-05-11 02:08:00,
2013-05-10 21:13:00,62.4,52.5,30.03,NNE,33,0.0,0.0,70,0.00,,---,0.30,VWS V14.00,2013-05-11 02:13:00,
2013-05-10 21:18:00,62.3,52.8,30.03,NNE,33,0.0,0.0,71,0.00,,---,0.30,VWS V14.00,2013-05-11 02:18:00,
2013-05-10 21:23:00,62.2,52.7,30.03,NNE,33,0.0,0.0,71,0.00,,---,0.30,VWS V14.00,2013-05-11 02:23:00,
2013-05-10 21:28:00,62.1,53.0,30.04,NNE,33,0.0,0.0,72,0.00,,---,0.30,VWS V14.00,2013-05-11 02:28:00,
2013-05-10 21:33:00,61.9,52.8,30.04,NNE,33,0.0,0.0,72,0.00,,---,0.30,VWS V14.00,2013-05-11 02:33:00,
2013-05-10 21:39:00,61.7,52.6,30.04,NNE,33,0.0,0.0,72,0.00,,---,0.30,VWS V14.00,2013-05-11 02:39:00,
2013-05-10 21:44:00,61.5,52.8,30.04,NE,34,0.0,0.0,73,0.00,,---,0.30,VWS V14.00,2013-05-11 02:44:00,
2013-05-10 21:49:00,61.4,52.7,30.04,NE,34,0.0,0.0,73,0.00,,---,0.30,VWS V14.00,2013-05-11 02:49:00,
2013-05-10 21:54:00,61.4,53.0,30.04,NE,34,0.0,0.0,74,0.00,,---,0.30,VWS V14.00,2013-05-11 02:54:00,
2013-05-10 21:59:00,61.3,53.0,30.05,NE,34,0.0,0.0,74,0.00,,---,0.30,VWS V14.00,2013-05-11 02:59:00,
2013-05-10 22:04:00,61.2,52.9,30.05,NE,34,0.0,0.0,74,0.00,,---,0.30,VWS V14.00,2013-05-11 03:04:00,
2013-05-10 22:09:00,60.9,52.9,30.05,NE,34,0.0,0.0,75,0.00,,---,0.30,VWS V14.00,2013-05-11 03:09:00,
2013-05-10 22:14:00,60.6,52.6,30.06,NE,34,0.0,0.0,75,0.00,,---,0.30,VWS V14.00,2013-05-11 03:14:00,
2013-05-10 22:19:00,60.4,52.8,30.06,NE,34,0.0,0.0,76,0.00,,---,0.30,VWS V14.00,2013-05-11 03:19:00,
2013-05-10 22:24:00,60.2,52.6,30.06,NE,34,0.0,0.0,76,0.00,,---,0.30,VWS V14.00,2013-05-11 03:24:00,
2013-05-10 22:29:00,60.0,52.8,30.06,NE,34,0.0,0.0,77,0.00,,---,0.30,VWS V14.00,2013-05-11 03:29:00,
2013-05-10 22:34:00,59.8,52.9,30.06,NE,34,0.0,0.0,78,0.00,,---,0.30,VWS V14.00,2013-05-11 03:34:00,
2013-05-10 22:39:00,59.5,52.6,30.06,NE,34,0.0,0.0,78,0.00,,---,0.30,VWS V14.00,2013-05-11 03:39:00,
2013-05-10 22:44:00,59.2,52.7,30.06,NE,34,0.0,0.0,79,0.00,,---,0.30,VWS V14.00,2013-05-11 03:44:00,
2013-05-10 22:49:00,59.0,52.8,30.06,NE,34,0.0,0.0,80,0.00,,---,0.30,VWS V14.00,2013-05-11 03:49:00,
2013-05-10 22:54:00,58.8,52.7,30.06,NE,34,0.0,0.0,80,0.00,,---,0.30,VWS V14.00,2013-05-11 03:54:00,
2013-05-10 23:00:00,58.7,52.6,30.07,NE,34,0.0,0.0,80,0.00,,---,0.30,VWS V14.00,2013-05-11 04:00:00,
2013-05-10 23:01:00,58.7,52.9,30.07,NE,34,0.0,0.0,81,0.00,,---,0.30,VWS V14.00,2013-05-11 04:01:00,
2013-05-10 23:02:00,58.7,52.9,30.07,NE,34,0.0,0.0,81,0.00,,---,0.30,VWS V14.00,2013-05-11 04:02:00,
2013-05-10 23:03:00,58.7,52.9,30.07,NE,34,0.0,0.0,81,0.00,,---,0.30,VWS V14.00,2013-05-11 04:03:00,
2013-05-10 23:05:00,58.7,52.9,30.07,NE,34,0.0,0.0,81,0.00,,---,0.30,VWS V14.00,2013-05-11 04:05:00,
2013-05-10 23:07:00,58.6,52.8,30.07,NE,34,0.0,0.0,81,0.00,,---,0.30,VWS V14.00,2013-05-11 04:07:00,
2013-05-10 23:13:00,58.6,52.8,30.07,NE,34,0.0,0.0,81,0.00,,---,0.30,VWS V14.00,2013-05-11 04:13:00,
2013-05-10 23:18:00,58.6,53.1,30.07,NE,34,0.0,0.0,82,0.00,,---,0.30,VWS V14.00,2013-05-11 04:18:00,
2013-05-10 23:23:00,58.7,53.2,30.07,NE,34,0.0,0.0,82,0.00,,---,0.30,VWS V14.00,2013-05-11 04:23:00,
2013-05-10 23:28:00,58.7,53.2,30.07,NE,34,0.0,0.0,82,0.00,,---,0.30,VWS V14.00,2013-05-11 04:28:00,
2013-05-10 23:33:00,58.7,53.2,30.07,NE,34,0.0,0.0,82,0.00,,---,0.30,VWS V14.00,2013-05-11 04:33:00,
2013-05-10 23:39:00,58.6,53.1,30.07,NE,34,0.0,0.0,82,0.00,,---,0.30,VWS V14.00,2013-05-11 04:39:00,
2013-05-10 23:44:00,58.5,53.0,30.07,NE,34,0.0,0.0,82,0.00,,---,0.30,VWS V14.00,2013-05-11 04:44:00,
2013-05-10 23:49:00,58.4,52.9,30.07,NE,34,0.0,0.0,82,0.00,,---,0.30,VWS V14.00,2013-05-11 04:49:00,
2013-05-10 23:55:00,58.3,52.8,30.07,NE,34,0.0,0.0,82,0.00,,---,0.30,VWS V14.00,2013-05-11 04:55:00,